sensor_id;sensor_type;location;lat;lon;timestamp;P1;durP1;ratioP1;P2;durP2;ratioP2
76705;SDS011;74356;44.392;0.314;2024-02-14T00:03:27;28.73;;;13.23;;
76705;SDS011;74356;44.392;0.314;2024-02-14T00:18:48;37.73;;;14.13;;
76705;SDS011;74356;44.392;0.314;2024-02-14T00:34:08;31.10;;;13.07;;
76705;SDS011;74356;44.392;0.314;2024-02-14T00:49:28;26.83;;;14.60;;
76705;SDS011;74356;44.392;0.314;2024-02-14T01:04:47;29.40;;;10.77;;
76705;SDS011;74356;44.392;0.314;2024-02-14T01:20:09;18.87;;;6.80;;
76705;SDS011;74356;44.392;0.314;2024-02-14T01:35:28;26.00;;;10.77;;
76705;SDS011;74356;44.392;0.314;2024-02-14T01:50:46;32.00;;;10.37;;
76705;SDS011;74356;44.392;0.314;2024-02-14T02:06:06;26.47;;;10.97;;
76705;SDS011;74356;44.392;0.314;2024-02-14T02:21:26;27.53;;;10.20;;
76705;SDS011;74356;44.392;0.314;2024-02-14T02:36:46;23.10;;;9.17;;
76705;SDS011;74356;44.392;0.314;2024-02-14T02:52:04;24.90;;;11.20;;
76705;SDS011;74356;44.392;0.314;2024-02-14T03:07:24;27.90;;;11.97;;
76705;SDS011;74356;44.392;0.314;2024-02-14T03:22:45;20.93;;;10.90;;
76705;SDS011;74356;44.392;0.314;2024-02-14T03:38:04;16.37;;;9.10;;
76705;SDS011;74356;44.392;0.314;2024-02-14T03:53:24;15.93;;;6.70;;
76705;SDS011;74356;44.392;0.314;2024-02-14T04:08:43;14.17;;;8.73;;
76705;SDS011;74356;44.392;0.314;2024-02-14T04:24:03;40.17;;;18.20;;
76705;SDS011;74356;44.392;0.314;2024-02-14T04:39:23;19.33;;;10.13;;
76705;SDS011;74356;44.392;0.314;2024-02-14T04:54:44;19.80;;;8.17;;
76705;SDS011;74356;44.392;0.314;2024-02-14T05:10:04;22.43;;;8.63;;
76705;SDS011;74356;44.392;0.314;2024-02-14T05:25:24;9.77;;;5.50;;
76705;SDS011;74356;44.392;0.314;2024-02-14T05:40:44;34.50;;;11.00;;
76705;SDS011;74356;44.392;0.314;2024-02-14T05:56:03;26.57;;;12.80;;
76705;SDS011;74356;44.392;0.314;2024-02-14T06:11:22;29.10;;;9.53;;
76705;SDS011;74356;44.392;0.314;2024-02-14T06:26:42;14.67;;;7.03;;
76705;SDS011;74356;44.392;0.314;2024-02-14T06:42:03;23.00;;;7.63;;
76705;SDS011;74356;44.392;0.314;2024-02-14T06:57:22;22.97;;;9.23;;
76705;SDS011;74356;44.392;0.314;2024-02-14T07:12:41;13.20;;;6.67;;
76705;SDS011;74356;44.392;0.314;2024-02-14T07:28:02;9.33;;;4.20;;
76705;SDS011;74356;44.392;0.314;2024-02-14T07:43:21;13.37;;;7.23;;
76705;SDS011;74356;44.392;0.314;2024-02-14T07:58:42;16.20;;;7.40;;
76705;SDS011;74356;44.392;0.314;2024-02-14T08:14:02;53.63;;;24.60;;
76705;SDS011;74356;44.392;0.314;2024-02-14T08:29:23;24.50;;;9.87;;
76705;SDS011;74356;44.392;0.314;2024-02-14T08:44:42;11.37;;;4.47;;
76705;SDS011;74356;44.392;0.314;2024-02-14T09:00:05;6.40;;;3.40;;
76705;SDS011;74356;44.392;0.314;2024-02-14T09:15:27;5.77;;;3.80;;
76705;SDS011;74356;44.392;0.314;2024-02-14T09:30:46;7.53;;;3.77;;
76705;SDS011;74356;44.392;0.314;2024-02-14T09:46:08;5.83;;;3.73;;
76705;SDS011;74356;44.392;0.314;2024-02-14T10:01:28;4.33;;;2.77;;
76705;SDS011;74356;44.392;0.314;2024-02-14T10:16:48;2.50;;;1.93;;
76705;SDS011;74356;44.392;0.314;2024-02-14T10:32:09;3.20;;;1.97;;
76705;SDS011;74356;44.392;0.314;2024-02-14T10:47:31;3.00;;;1.00;;
76705;SDS011;74356;44.392;0.314;2024-02-14T11:02:53;4.23;;;2.20;;
76705;SDS011;74356;44.392;0.314;2024-02-14T11:18:24;4.57;;;1.00;;
76705;SDS011;74356;44.392;0.314;2024-02-14T11:33:37;1.20;;;1.03;;
76705;SDS011;74356;44.392;0.314;2024-02-14T11:48:58;2.17;;;1.27;;
76705;SDS011;74356;44.392;0.314;2024-02-14T12:04:18;0.77;;;0.70;;
76705;SDS011;74356;44.392;0.314;2024-02-14T12:19:41;2.13;;;1.13;;
76705;SDS011;74356;44.392;0.314;2024-02-14T12:35:00;1.33;;;0.70;;
76705;SDS011;74356;44.392;0.314;2024-02-14T12:50:20;4.27;;;1.00;;
76705;SDS011;74356;44.392;0.314;2024-02-14T13:05:39;2.77;;;0.90;;
76705;SDS011;74356;44.392;0.314;2024-02-14T13:21:00;2.03;;;1.03;;
76705;SDS011;74356;44.392;0.314;2024-02-14T13:36:19;1.13;;;0.80;;
76705;SDS011;74356;44.392;0.314;2024-02-14T13:51:38;1.83;;;0.90;;
76705;SDS011;74356;44.392;0.314;2024-02-14T14:06:58;0.83;;;0.83;;
76705;SDS011;74356;44.392;0.314;2024-02-14T14:22:19;6.13;;;1.10;;
76705;SDS011;74356;44.392;0.314;2024-02-14T14:37:39;1.43;;;0.87;;
76705;SDS011;74356;44.392;0.314;2024-02-14T14:52:58;3.93;;;1.10;;
76705;SDS011;74356;44.392;0.314;2024-02-14T15:08:20;1.00;;;0.90;;
76705;SDS011;74356;44.392;0.314;2024-02-14T15:23:37;2.60;;;1.40;;
76705;SDS011;74356;44.392;0.314;2024-02-14T15:38:55;5.00;;;1.10;;
76705;SDS011;74356;44.392;0.314;2024-02-14T15:54:14;1.13;;;0.80;;
76705;SDS011;74356;44.392;0.314;2024-02-14T16:09:35;1.37;;;0.90;;
76705;SDS011;74356;44.392;0.314;2024-02-14T16:24:56;1.97;;;0.83;;
76705;SDS011;74356;44.392;0.314;2024-02-14T16:40:16;1.93;;;0.80;;
76705;SDS011;74356;44.392;0.314;2024-02-14T16:55:33;4.03;;;1.07;;
76705;SDS011;74356;44.392;0.314;2024-02-14T17:10:50;2.83;;;0.80;;
76705;SDS011;74356;44.392;0.314;2024-02-14T17:26:05;1.63;;;1.03;;
76705;SDS011;74356;44.392;0.314;2024-02-14T17:41:23;16.07;;;6.57;;
76705;SDS011;74356;44.392;0.314;2024-02-14T17:56:41;32.23;;;19.33;;
76705;SDS011;74356;44.392;0.314;2024-02-14T18:11:59;22.33;;;9.57;;
76705;SDS011;74356;44.392;0.314;2024-02-14T18:27:19;14.30;;;6.80;;
76705;SDS011;74356;44.392;0.314;2024-02-14T18:42:37;9.33;;;5.13;;
76705;SDS011;74356;44.392;0.314;2024-02-14T18:57:55;7.37;;;2.20;;
76705;SDS011;74356;44.392;0.314;2024-02-14T19:13:15;2.27;;;1.63;;
76705;SDS011;74356;44.392;0.314;2024-02-14T19:28:34;6.43;;;2.93;;
76705;SDS011;74356;44.392;0.314;2024-02-14T19:43:55;6.67;;;3.03;;
76705;SDS011;74356;44.392;0.314;2024-02-14T19:59:14;13.70;;;6.00;;
76705;SDS011;74356;44.392;0.314;2024-02-14T20:14:33;20.10;;;10.70;;
76705;SDS011;74356;44.392;0.314;2024-02-14T20:29:51;20.90;;;8.90;;
76705;SDS011;74356;44.392;0.314;2024-02-14T20:45:13;14.87;;;7.80;;
76705;SDS011;74356;44.392;0.314;2024-02-14T21:00:31;13.10;;;6.33;;
76705;SDS011;74356;44.392;0.314;2024-02-14T21:15:51;17.53;;;7.13;;
76705;SDS011;74356;44.392;0.314;2024-02-14T21:31:13;9.37;;;4.87;;
76705;SDS011;74356;44.392;0.314;2024-02-14T21:46:31;4.77;;;2.63;;
76705;SDS011;74356;44.392;0.314;2024-02-14T22:01:52;4.53;;;1.90;;
76705;SDS011;74356;44.392;0.314;2024-02-14T22:17:14;3.13;;;1.50;;
76705;SDS011;74356;44.392;0.314;2024-02-14T22:32:31;4.90;;;2.80;;
76705;SDS011;74356;44.392;0.314;2024-02-14T22:47:51;6.37;;;1.93;;
76705;SDS011;74356;44.392;0.314;2024-02-14T23:03:13;5.00;;;1.93;;
76705;SDS011;74356;44.392;0.314;2024-02-14T23:18:30;6.47;;;1.17;;
76705;SDS011;74356;44.392;0.314;2024-02-14T23:33:49;1.77;;;1.30;;
76705;SDS011;74356;44.392;0.314;2024-02-14T23:49:09;2.07;;;1.13;;
